Sterling, Oklahoma
Current Conditions -  °F | °C
As of 2:58 AM on Wednesday 22 Oct 2014 (Local Time) from KFSI Reporting Station
Clear Clear  
Wind Chill: 59°   Ceiling: Unl
Heat Index: 59°   Visibility: 10mi
Dew Point: 55°   Wind: 3mph
Humidity: 85%   Direction: 140°SE
Pressure: 30.06"   Gusts: NA
Location:  34.75°N, 98.17°W
Report Text: KFSI 220758Z AUTO 14003KT 10SM CLR 15/13 A3006 RMK AO2 SLP173 T01510126
Loading
Personal Weather Stations






























Interactive Weather Map
Tropical Storm Tracking
New forecast layout! Learn more

10-Day Weather Forecast

Advertisements
Track Severe Weather on mobile